TimeMST,TemperatureF,Dew PointF,Humidity,Sea Level PressureIn,VisibilityMPH,Wind Direction,Wind SpeedMPH,Gust SpeedMPH,PrecipitationIn,Events,Conditions,WindDirDegrees,DateUTC
12:55 AM,33.8,12.2,41,30.14,10.0,Calm,Calm,-,N/A,,Clear,0,2013-01-23 07:55:00
1:15 AM,26.6,10.4,51,30.14,10.0,Calm,Calm,-,N/A,,Clear,0,2013-01-23 08:15:00
1:35 AM,30.2,12.2,47,30.14,10.0,SSW,3.5,-,N/A,,Clear,200,2013-01-23 08:35:00
1:55 AM,28.4,10.4,47,30.14,10.0,Calm,Calm,-,N/A,,Clear,0,2013-01-23 08:55:00
2:15 AM,30.2,12.2,47,30.14,10.0,Calm,Calm,-,N/A,,Clear,0,2013-01-23 09:15:00
2:55 AM,26.6,12.2,55,30.14,10.0,Calm,Calm,-,N/A,,Clear,0,2013-01-23 09:55:00
3:15 AM,26.6,10.4,51,30.14,10.0,Calm,Calm,-,N/A,,Clear,0,2013-01-23 10:15:00
3:35 AM,21.2,6.8,54,30.14,10.0,South,4.6,-,N/A,,Clear,180,2013-01-23 10:35:00
4:15 AM,26.6,10.4,51,30.13,10.0,Calm,Calm,-,N/A,,Clear,0,2013-01-23 11:15:00
4:35 AM,26.6,8.6,47,30.13,10.0,NNE,8.1,-,N/A,,Clear,30,2013-01-23 11:35:00
4:55 AM,30.2,12.2,47,30.12,10.0,North,9.2,-,N/A,,Clear,10,2013-01-23 11:55:00
5:15 AM,26.6,6.8,43,30.12,10.0,SSE,5.8,-,N/A,,Clear,160,2013-01-23 12:15:00
5:35 AM,30.2,10.4,44,30.12,10.0,Calm,Calm,-,N/A,,Clear,0,2013-01-23 12:35:00
5:55 AM,30.2,8.6,40,30.13,10.0,Calm,Calm,-,N/A,,Clear,0,2013-01-23 12:55:00
6:15 AM,41.0,6.8,24,30.13,10.0,Calm,Calm,-,N/A,,Clear,0,2013-01-23 13:15:00
6:35 AM,42.8,5.0,21,30.13,10.0,SSW,6.9,-,N/A,,Clear,210,2013-01-23 13:35:00
6:55 AM,35.6,6.8,30,30.13,10.0,Calm,Calm,-,N/A,,Clear,0,2013-01-23 13:55:00
7:15 AM,33.8,10.4,38,30.13,10.0,Calm,Calm,-,N/A,,Clear,0,2013-01-23 14:15:00
7:35 AM,37.4,6.8,28,30.13,10.0,NNW,3.5,-,N/A,,Clear,330,2013-01-23 14:35:00
8:15 AM,37.4,5.0,26,30.13,10.0,North,8.1,-,N/A,,Clear,360,2013-01-23 15:15:00
8:35 AM,37.4,6.8,28,30.13,10.0,North,4.6,-,N/A,,Clear,350,2013-01-23 15:35:00
8:55 AM,35.6,12.2,38,30.14,10.0,West,3.5,-,N/A,,Clear,260,2013-01-23 15:55:00
9:15 AM,39.2,14.0,36,30.15,10.0,North,5.8,-,N/A,,Clear,350,2013-01-23 16:15:00
9:35 AM,42.8,8.6,25,30.14,10.0,Calm,Calm,-,N/A,,Clear,0,2013-01-23 16:35:00
9:55 AM,44.6,12.2,27,30.16,10.0,Calm,Calm,-,N/A,,Clear,0,2013-01-23 16:55:00
10:15 AM,46.4,8.6,22,30.16,10.0,Calm,Calm,-,N/A,,Clear,0,2013-01-23 17:15:00
10:35 AM,48.2,12.2,24,30.16,10.0,Calm,Calm,-,N/A,,Clear,0,2013-01-23 17:35:00
10:55 AM,50.0,12.2,22,30.15,10.0,North,4.6,-,N/A,,Clear,10,2013-01-23 17:55:00
11:15 AM,51.8,12.2,21,30.14,10.0,ENE,4.6,-,N/A,,Clear,70,2013-01-23 18:15:00
11:35 AM,55.4,12.2,18,30.13,10.0,NE,4.6,-,N/A,,Clear,50,2013-01-23 18:35:00
11:55 AM,60.8,12.2,15,30.12,10.0,SSE,4.6,-,N/A,,Clear,150,2013-01-23 18:55:00
12:15 PM,59.0,8.6,14,30.11,10.0,Calm,Calm,-,N/A,,Clear,0,2013-01-23 19:15:00
12:35 PM,60.8,10.4,14,30.11,10.0,ENE,3.5,-,N/A,,Clear,70,2013-01-23 19:35:00
12:55 PM,60.8,10.4,14,30.11,10.0,NNE,5.8,-,N/A,,Clear,20,2013-01-23 19:55:00
1:15 PM,57.2,10.4,16,30.11,10.0,ENE,8.1,-,N/A,,Clear,60,2013-01-23 20:15:00
1:35 PM,53.6,12.2,19,30.11,10.0,East,10.4,-,N/A,,Clear,90,2013-01-23 20:35:00
1:55 PM,55.4,12.2,18,30.10,10.0,ESE,9.2,-,N/A,,Clear,110,2013-01-23 20:55:00
2:15 PM,55.4,15.8,21,30.11,10.0,ESE,9.2,-,N/A,,Clear,110,2013-01-23 21:15:00
2:35 PM,53.6,15.8,22,30.11,10.0,ESE,6.9,-,N/A,,Clear,110,2013-01-23 21:35:00
2:55 PM,53.6,12.2,19,30.12,10.0,NE,5.8,-,N/A,,Clear,50,2013-01-23 21:55:00
3:15 PM,51.8,15.8,24,30.12,10.0,NNE,3.5,-,N/A,,Clear,30,2013-01-23 22:15:00
3:35 PM,48.2,15.8,27,30.13,10.0,North,5.8,-,N/A,,Clear,360,2013-01-23 22:35:00
3:55 PM,46.4,15.8,29,30.13,10.0,Calm,Calm,-,N/A,,Clear,0,2013-01-23 22:55:00
4:15 PM,46.4,15.8,29,30.13,10.0,North,6.9,-,N/A,,Clear,360,2013-01-23 23:15:00
4:55 PM,44.6,15.8,31,30.14,10.0,North,8.1,-,N/A,,Clear,360,2013-01-23 23:55:00
5:15 PM,41.0,12.2,31,30.14,10.0,NNE,5.8,-,N/A,,Clear,20,2013-01-24 00:15:00
5:35 PM,42.8,12.2,29,30.14,10.0,North,8.1,-,N/A,,Clear,10,2013-01-24 00:35:00
5:55 PM,42.8,14.0,31,30.14,10.0,North,3.5,-,N/A,,Clear,10,2013-01-24 00:55:00
6:15 PM,42.8,12.2,29,30.15,10.0,North,8.1,-,N/A,,Clear,360,2013-01-24 01:15:00
6:35 PM,39.2,12.2,33,30.16,10.0,North,8.1,-,N/A,,Clear,360,2013-01-24 01:35:00
7:15 PM,39.2,12.2,33,30.16,10.0,North,6.9,-,N/A,,Clear,10,2013-01-24 02:15:00
7:55 PM,39.2,10.4,31,30.16,10.0,North,3.5,-,N/A,,Clear,360,2013-01-24 02:55:00
8:15 PM,39.2,10.4,31,30.15,10.0,Calm,Calm,-,N/A,,Clear,0,2013-01-24 03:15:00
8:35 PM,39.2,12.2,33,30.15,10.0,Calm,Calm,-,N/A,,Clear,0,2013-01-24 03:35:00
8:55 PM,37.4,10.4,33,30.15,10.0,North,5.8,-,N/A,,Clear,10,2013-01-24 03:55:00
9:15 PM,39.2,10.4,31,30.15,10.0,North,5.8,-,N/A,,Clear,10,2013-01-24 04:15:00
9:35 PM,37.4,12.2,36,30.15,10.0,NNE,8.1,-,N/A,,Clear,20,2013-01-24 04:35:00
9:55 PM,37.4,12.2,36,30.16,10.0,NE,9.2,-,N/A,,Clear,40,2013-01-24 04:55:00
10:15 PM,37.4,10.4,33,30.17,10.0,ENE,11.5,-,N/A,,Clear,60,2013-01-24 05:15:00
10:35 PM,35.6,12.2,38,30.16,10.0,NE,11.5,-,N/A,,Clear,50,2013-01-24 05:35:00
11:15 PM,33.8,12.2,41,30.17,10.0,NNE,6.9,-,N/A,,Clear,30,2013-01-24 06:15:00
11:35 PM,32.0,10.4,41,30.17,10.0,North,3.5,-,N/A,,Clear,350,2013-01-24 06:35:00
11:55 PM,30.2,12.2,47,30.16,10.0,North,5.8,-,N/A,,Clear,10,2013-01-24 06:55:00